Time;durP1;ratioP1;P1;durP2;ratioP2;P2;SDS_P1;SDS_P2;PMS_P1;PMS_P2;Temp;Humidity;BMP_temperature;BMP_pressure;BME280_temperature;BME280_humidity;BME280_pressure;Samples;Min_cycle;Max_cycle;Signal;HPM_P1;HPM_P2
2023/03/03 00:00:16;;;;;;;121.60;18.88;;;;;;;1.99;100.00;102635.56;4851135;29;20052;-77
2023/03/03 00:02:43;;;;;;;61.00;15.18;;;;;;;1.99;100.00;102639.88;4891429;29;20078;-77
2023/03/03 00:05:14;;;;;;;88.82;15.77;;;;;;;2.00;100.00;102637.34;4884091;29;20052;-77
2023/03/03 00:07:45;;;;;;;84.43;17.50;;;;;;;2.02;100.00;102638.34;4880889;29;20062;-77
2023/03/03 00:10:13;;;;;;;127.30;17.58;;;;;;;2.02;100.00;102630.56;4893492;29;20060;-76
2023/03/03 00:12:47;;;;;;;136.48;18.73;;;;;;;2.02;100.00;102645.25;4898680;29;20048;-77
2023/03/03 00:15:23;;;;;;;50.60;16.23;;;;;;;1.99;100.00;102619.97;4852086;29;20056;-78
2023/03/03 00:17:51;;;;;;;180.75;19.95;;;;;;;2.00;100.00;102631.25;4884874;29;20061;-78
2023/03/03 00:20:37;;;;;;;55.92;15.52;;;;;;;2.00;100.00;102632.16;4901631;29;20045;-78
2023/03/03 00:23:27;;;;;;;50.63;16.27;;;;;;;2.00;100.00;102624.34;4879113;29;20048;-78
2023/03/03 00:25:55;;;;;;;64.18;17.40;;;;;;;2.02;100.00;102625.34;4891784;29;20041;-78
2023/03/03 00:28:27;;;;;;;83.30;15.45;;;;;;;2.02;100.00;102630.56;4901675;29;20056;-77
2023/03/03 00:30:58;;;;;;;291.27;25.13;;;;;;;2.02;100.00;102627.97;4852930;29;20049;-77
2023/03/03 00:33:32;;;;;;;160.30;21.25;;;;;;;2.02;100.00;102624.47;4895950;29;20037;-78
2023/03/03 00:36:38;;;;;;;76.03;16.20;;;;;;;2.03;100.00;102639.28;4891980;29;20048;-78
2023/03/03 00:39:14;;;;;;;176.02;20.83;;;;;;;1.97;100.00;102631.97;4880281;29;20044;-77
2023/03/03 00:41:43;;;;;;;69.25;14.90;;;;;;;1.92;100.00;102634.25;4885797;29;20044;-77
2023/03/03 00:44:41;;;;;;;68.85;13.55;;;;;;;1.89;100.00;102635.75;4880327;29;20415;-77
2023/03/03 00:47:15;;;;;;;97.53;13.68;;;;;;;1.84;100.00;102629.34;4846114;29;20073;-79
2023/03/03 00:49:43;;;;;;;85.70;13.35;;;;;;;1.80;100.00;102629.94;4886828;29;20460;-79
2023/03/03 00:52:16;;;;;;;97.88;15.57;;;;;;;1.77;100.00;102633.22;4883778;29;20059;-78
2023/03/03 00:54:43;;;;;;;59.60;14.05;;;;;;;1.73;100.00;102633.81;4880113;29;20048;-79
2023/03/03 00:57:14;;;;;;;134.57;16.05;;;;;;;1.69;100.00;102621.41;4893887;29;20519;-79
2023/03/03 00:59:42;;;;;;;234.88;21.20;;;;;;;1.66;100.00;102629.88;4890416;29;20067;-76
2023/03/03 01:02:10;;;;;;;250.85;19.13;;;;;;;1.63;100.00;102621.00;4850595;29;20055;-79
2023/03/03 01:04:39;;;;;;;246.45;19.27;;;;;;;1.59;100.00;102627.69;4889921;29;20056;-77
2023/03/03 01:07:06;;;;;;;134.88;16.98;;;;;;;1.54;100.00;102623.88;4892076;29;20056;-77
2023/03/03 01:09:33;;;;;;;257.90;21.25;;;;;;;1.50;100.00;102624.47;4840561;29;20056;-78
2023/03/03 01:12:01;;;;;;;193.48;19.40;;;;;;;1.44;100.00;102622.34;4891078;29;20075;-79
2023/03/03 01:14:28;;;;;;;85.15;13.15;;;;;;;1.38;100.00;102621.00;4876784;29;20063;-78
2023/03/03 01:16:55;;;;;;;143.43;17.95;;;;;;;1.33;100.00;102633.69;4852684;29;20060;-79
2023/03/03 01:19:23;;;;;;;83.30;13.70;;;;;;;1.25;100.00;102622.78;4895902;29;20044;-77
2023/03/03 01:21:50;;;;;;;124.53;15.05;;;;;;;1.18;100.00;102617.94;4879613;29;20045;-78
2023/03/03 01:24:17;;;;;;;113.32;14.65;;;;;;;1.10;100.00;102622.59;4883467;29;20084;-79
2023/03/03 01:26:45;;;;;;;107.35;13.10;;;;;;;0.99;100.00;102628.72;4893457;29;20500;-77
2023/03/03 01:29:12;;;;;;;143.50;15.80;;;;;;;0.89;100.00;102623.66;4864021;29;20048;-78
2023/03/03 01:31:39;;;;;;;128.98;12.65;;;;;;;0.80;100.00;102636.00;4894476;29;20053;-78
2023/03/03 01:34:07;;;;;;;89.60;13.23;;;;;;;0.69;100.00;102630.94;4855856;29;20060;-79
2023/03/03 01:36:36;;;;;;;180.10;17.45;;;;;;;0.66;100.00;102635.00;4879210;29;20063;-78
2023/03/03 01:39:03;;;;;;;119.78;14.52;;;;;;;0.62;100.00;102633.88;4885525;29;20048;-79
2023/03/03 01:41:32;;;;;;;170.27;16.58;;;;;;;0.59;100.00;102625.88;4897834;29;20057;-79
2023/03/03 01:44:00;;;;;;;135.70;15.80;;;;;;;0.55;100.00;102629.97;4905238;29;20048;-78
2023/03/03 01:46:54;;;;;;;82.95;13.50;;;;;;;0.50;100.00;102623.53;4898445;29;20512;-78
2023/03/03 01:49:27;;;;;;;174.85;18.20;;;;;;;0.45;100.00;102629.16;4846520;29;20041;-78
2023/03/03 01:51:59;;;;;;;142.45;15.82;;;;;;;0.39;100.00;102624.44;4893810;29;20126;-78
2023/03/03 01:54:35;;;;;;;163.63;17.85;;;;;;;0.36;100.00;102621.63;4887080;29;20048;-79
2023/03/03 01:57:10;;;;;;;80.82;13.60;;;;;;;0.34;100.00;102626.72;4892637;29;20547;-80
2023/03/03 01:59:44;;;;;;;69.60;13.85;;;;;;;0.32;100.00;102625.69;4890333;29;20056;-78
2023/03/03 02:02:12;;;;;;;148.45;16.50;;;;;;;0.30;100.00;102618.56;4892047;29;20057;-79
2023/03/03 02:04:39;;;;;;;64.13;13.65;;;;;;;0.27;100.00;102619.25;4845708;29;20507;-77
2023/03/03 02:07:10;;;;;;;36.03;12.88;;;;;;;0.24;100.00;102623.31;4879375;29;20055;-78
2023/03/03 02:10:01;;;;;;;109.13;15.65;;;;;;;0.22;100.00;102620.59;4883669;29;20056;-77
2023/03/03 02:12:39;;;;;;;37.97;13.48;;;;;;;0.19;100.00;102618.69;4894416;29;20420;-77
2023/03/03 02:15:22;;;;;;;101.97;14.98;;;;;;;0.15;100.00;102616.69;4894247;29;20060;-78
2023/03/03 02:17:56;;;;;;;135.10;16.25;;;;;;;0.13;100.00;102613.06;4890888;29;20044;-78
2023/03/03 02:20:42;;;;;;;52.25;13.15;;;;;;;0.10;100.00;102627.50;4857001;29;20673;-78
2023/03/03 02:23:42;;;;;;;123.20;16.63;;;;;;;0.06;100.00;102616.00;4889188;29;20056;-78
2023/03/03 02:26:19;;;;;;;52.00;10.33;;;;;;;0.03;100.00;102614.84;4852105;29;20052;-78
2023/03/03 02:28:47;;;;;;;53.53;12.60;;;;;;;0.02;100.00;102631.19;4885863;29;20064;-77
2023/03/03 02:31:17;;;;;;;70.03;13.27;;;;;;;0.00;100.00;102625.91;4894373;29;20041;-77
2023/03/03 02:33:47;;;;;;;85.05;14.15;;;;;;;-0.02;100.00;102618.03;4892674;29;20508;-77
2023/03/03 02:36:17;;;;;;;63.90;13.98;;;;;;;-0.01;100.00;102613.72;4827721;29;20056;-78
2023/03/03 02:38:50;;;;;;;71.78;14.23;;;;;;;-0.03;100.00;102611.00;4893050;29;20052;-78
2023/03/03 02:41:39;;;;;;;98.70;15.25;;;;;;;-0.03;100.00;102610.13;4885641;29;20041;-78
2023/03/03 02:44:19;;;;;;;84.55;13.60;;;;;;;-0.07;100.00;102624.53;4891817;29;20056;-79
2023/03/03 02:46:49;;;;;;;126.03;15.43;;;;;;;-0.12;100.00;102615.50;4891126;29;20056;-77
2023/03/03 02:49:25;;;;;;;42.35;12.25;;;;;;;-0.14;100.00;102622.28;4898300;29;20381;-79
2023/03/03 02:51:56;;;;;;;53.70;12.43;;;;;;;-0.14;100.00;102630.03;4844157;29;20060;-77
2023/03/03 02:54:26;;;;;;;86.40;12.15;;;;;;;-0.17;100.00;102624.66;4881653;29;20055;-77
2023/03/03 02:56:57;;;;;;;28.02;10.82;;;;;;;-0.18;100.00;102622.81;4881815;29;20041;-77
2023/03/03 02:59:26;;;;;;;37.28;11.88;;;;;;;-0.20;100.00;102617.53;4890797;29;20055;-77
2023/03/03 03:01:56;;;;;;;25.52;10.80;;;;;;;-0.24;100.00;102636.22;4888767;29;20068;-77
2023/03/03 03:04:26;;;;;;;15.20;10.10;;;;;;;-0.24;100.00;102627.56;4890431;29;20049;-76
2023/03/03 03:06:54;;;;;;;13.68;9.15;;;;;;;-0.29;100.00;102622.00;4849168;29;20394;-77
2023/03/03 03:09:24;;;;;;;13.75;9.82;;;;;;;-0.31;100.00;102618.41;4886595;29;20420;-78
2023/03/03 03:11:53;;;;;;;16.13;9.57;;;;;;;-0.34;100.00;102625.97;4884109;29;20060;-77
2023/03/03 03:14:24;;;;;;;12.05;8.85;;;;;;;-0.38;100.00;102629.09;4892162;29;20060;-78
2023/03/03 03:16:53;;;;;;;11.98;8.68;;;;;;;-0.42;100.00;102624.47;4888077;29;20052;-77
2023/03/03 03:19:20;;;;;;;13.35;8.35;;;;;;;-0.45;100.00;102626.84;4890484;29;20540;-77
2023/03/03 03:21:48;;;;;;;9.93;7.90;;;;;;;-0.50;100.00;102623.88;4843677;29;21916;-77
2023/03/03 03:24:17;;;;;;;11.38;7.97;;;;;;;-0.54;100.00;102629.63;4892930;29;20083;-79
2023/03/03 03:26:50;;;;;;;10.10;7.88;;;;;;;-0.56;100.00;102628.59;4877656;29;20057;-77
2023/03/03 03:29:19;;;;;;;9.25;8.23;;;;;;;-0.60;100.00;102630.03;4886338;29;20056;-78
2023/03/03 03:31:46;;;;;;;13.32;9.15;;;;;;;-0.62;100.00;102617.78;4876409;29;20400;-78
2023/03/03 03:34:13;;;;;;;11.18;7.85;;;;;;;-0.66;100.00;102629.56;4878708;29;20061;-79
2023/03/03 03:36:41;;;;;;;23.52;8.55;;;;;;;-0.71;100.00;102628.31;4876036;29;20048;-78
2023/03/03 03:39:10;;;;;;;17.67;7.43;;;;;;;-0.75;100.00;102622.78;4853312;29;20052;-78
2023/03/03 03:41:41;;;;;;;9.20;7.15;;;;;;;-0.80;100.00;102620.72;4890968;29;20055;-79
2023/03/03 03:44:09;;;;;;;10.18;7.80;;;;;;;-0.82;100.00;102619.69;4853417;29;20067;-79
2023/03/03 03:46:37;;;;;;;8.93;7.22;;;;;;;-0.87;100.00;102618.47;4855983;29;20048;-78
2023/03/03 03:49:04;;;;;;;12.70;8.10;;;;;;;-0.88;100.00;102624.41;4889324;29;20060;-78
2023/03/03 03:51:34;;;;;;;9.07;7.45;;;;;;;-0.92;100.00;102618.88;4863154;29;20052;-78
2023/03/03 03:54:02;;;;;;;8.10;7.03;;;;;;;-0.94;100.00;102615.28;4852105;29;20134;-78
2023/03/03 03:56:31;;;;;;;9.10;7.57;;;;;;;-0.94;100.00;102611.00;4893779;29;20071;-78
2023/03/03 03:59:01;;;;;;;8.65;6.70;;;;;;;-0.95;100.00;102616.06;4881796;29;20060;-78
2023/03/03 04:01:28;;;;;;;9.70;7.40;;;;;;;-0.95;100.00;102613.47;4903604;29;20052;-78
2023/03/03 04:03:56;;;;;;;7.85;6.68;;;;;;;-0.96;100.00;102615.16;4892350;29;20044;-78
2023/03/03 04:06:24;;;;;;;8.93;7.05;;;;;;;-0.97;100.00;102608.16;4880644;29;20078;-79
2023/03/03 04:08:52;;;;;;;8.48;6.90;;;;;;;-0.98;100.00;102612.44;4838415;29;20063;-78
2023/03/03 04:11:21;;;;;;;8.15;6.65;;;;;;;-1.02;100.00;102613.00;4878238;29;20053;-79
2023/03/03 04:13:49;;;;;;;7.13;6.40;;;;;;;-1.01;100.00;102616.47;4881570;29;20072;-78
2023/03/03 04:16:16;;;;;;;7.93;6.72;;;;;;;-1.01;100.00;102621.66;4878162;29;20055;-78
2023/03/03 04:18:45;;;;;;;7.80;6.25;;;;;;;-1.03;100.00;102616.34;4877512;29;20053;-78
2023/03/03 04:21:14;;;;;;;7.73;6.20;;;;;;;-1.04;100.00;102622.31;4893163;29;20049;-78
2023/03/03 04:23:43;;;;;;;6.70;5.60;;;;;;;-1.06;100.00;102618.72;4855669;29;20056;-78
2023/03/03 04:26:11;;;;;;;7.40;6.40;;;;;;;-1.07;100.00;102621.19;4892450;29;20067;-79
2023/03/03 04:28:39;;;;;;;6.60;5.88;;;;;;;-1.07;100.00;102623.75;4853446;29;20060;-78
2023/03/03 04:31:07;;;;;;;8.45;6.20;;;;;;;-1.09;100.00;102625.31;4890122;29;20053;-77
2023/03/03 04:33:35;;;;;;;7.57;5.80;;;;;;;-1.11;100.00;102620.03;4882190;29;20048;-78
2023/03/03 04:36:04;;;;;;;6.13;5.53;;;;;;;-1.15;100.00;102615.41;4887873;29;20516;-77
2023/03/03 04:38:32;;;;;;;6.95;5.88;;;;;;;-1.15;100.00;102614.47;4873581;29;20060;-76
2023/03/03 04:40:59;;;;;;;7.57;6.18;;;;;;;-1.16;100.00;102615.28;4855226;29;20061;-79
2023/03/03 04:43:31;;;;;;;8.40;6.90;;;;;;;-1.18;100.00;102616.03;4897681;29;20056;-79
2023/03/03 04:46:00;;;;;;;8.73;6.78;;;;;;;-1.18;100.00;102608.28;4861242;29;20742;-79
2023/03/03 04:48:28;;;;;;;8.40;6.75;;;;;;;-1.20;100.00;102615.00;4902298;29;20460;-78
2023/03/03 04:50:55;;;;;;;7.18;6.22;;;;;;;-1.22;100.00;102614.00;4890454;29;20045;-78
2023/03/03 04:53:23;;;;;;;7.03;6.32;;;;;;;-1.22;100.00;102611.41;4892921;29;20100;-78
2023/03/03 04:55:55;;;;;;;7.70;6.75;;;;;;;-1.24;100.00;102612.09;4849746;29;20060;-78
2023/03/03 04:58:22;;;;;;;7.60;6.25;;;;;;;-1.24;100.00;102612.97;4889633;29;20052;-77
2023/03/03 05:00:56;;;;;;;6.72;5.75;;;;;;;-1.25;100.00;102618.03;4874515;29;20043;-79
2023/03/03 05:03:26;;;;;;;6.93;6.13;;;;;;;-1.26;100.00;102611.94;4858083;29;20056;-79
2023/03/03 05:05:54;;;;;;;7.15;6.38;;;;;;;-1.26;100.00;102616.22;4878246;29;20052;-78
2023/03/03 05:08:21;;;;;;;8.25;6.35;;;;;;;-1.28;100.00;102610.03;4855310;29;20053;-79
2023/03/03 05:10:53;;;;;;;7.50;6.13;;;;;;;-1.29;100.00;102600.47;4842819;29;20539;-78
2023/03/03 05:13:20;;;;;;;8.25;5.78;;;;;;;-1.31;100.00;102608.09;4886282;29;20056;-79
2023/03/03 05:15:54;;;;;;;11.30;6.75;;;;;;;-1.33;100.00;102607.06;4881203;29;20052;-78
2023/03/03 05:18:23;;;;;;;7.25;6.00;;;;;;;-1.37;100.00;102602.44;4884233;29;20055;-79
2023/03/03 05:20:51;;;;;;;8.88;6.10;;;;;;;-1.37;100.00;102605.03;4858363;29;20056;-77
2023/03/03 05:23:18;;;;;;;8.70;6.22;;;;;;;-1.38;100.00;102604.13;4859776;29;20045;-77
2023/03/03 05:25:47;;;;;;;8.73;6.80;;;;;;;-1.39;100.00;102609.16;4888612;29;20056;-77
2023/03/03 05:28:17;;;;;;;7.45;6.57;;;;;;;-1.43;100.00;102600.25;4829225;29;21092;-77
2023/03/03 05:30:45;;;;;;;8.52;6.25;;;;;;;-1.44;100.00;102602.72;4888701;29;20052;-78
2023/03/03 05:33:14;;;;;;;9.40;6.70;;;;;;;-1.45;100.00;102603.53;4874670;29;20057;-77
2023/03/03 05:35:43;;;;;;;9.02;6.57;;;;;;;-1.45;100.00;102599.25;4889026;29;20709;-78
2023/03/03 05:38:11;;;;;;;8.38;6.80;;;;;;;-1.47;100.00;102605.97;4869813;29;20060;-78
2023/03/03 05:40:39;;;;;;;7.90;6.60;;;;;;;-1.47;100.00;102599.91;4892648;29;20044;-78
2023/03/03 05:43:06;;;;;;;9.40;7.22;;;;;;;-1.47;100.00;102599.91;4847360;29;20064;-78
2023/03/03 05:45:34;;;;;;;7.72;6.93;;;;;;;-1.48;100.00;102601.56;4891947;29;20064;-78
2023/03/03 05:48:02;;;;;;;11.23;7.85;;;;;;;-1.49;100.00;102607.53;4881711;29;20044;-79
2023/03/03 05:50:31;;;;;;;10.48;7.70;;;;;;;-1.49;100.00;102599.78;4886625;29;20052;-79
2023/03/03 05:52:59;;;;;;;11.43;7.93;;;;;;;-1.48;100.00;102605.84;4903068;29;20534;-78
2023/03/03 05:55:27;;;;;;;8.90;7.28;;;;;;;-1.49;100.00;102606.63;4883372;29;20056;-79
2023/03/03 05:57:56;;;;;;;10.93;7.63;;;;;;;-1.48;100.00;102611.03;4847967;29;20057;-79
2023/03/03 06:00:24;;;;;;;8.98;7.55;;;;;;;-1.49;100.00;102606.63;4890799;29;20784;-79
2023/03/03 06:02:51;;;;;;;11.02;7.15;;;;;;;-1.50;100.00;102608.31;4882396;29;20512;-78
2023/03/03 06:05:19;;;;;;;8.15;7.00;;;;;;;-1.50;100.00;102610.00;4873856;29;20055;-79
2023/03/03 06:07:46;;;;;;;8.98;7.40;;;;;;;-1.50;100.00;102617.75;4891862;29;20052;-79
2023/03/03 06:10:13;;;;;;;8.27;6.63;;;;;;;-1.51;100.00;102608.19;4860911;29;20416;-79
2023/03/03 06:12:47;;;;;;;10.25;7.10;;;;;;;-1.51;100.00;102621.09;4891278;29;20060;-80
2023/03/03 06:15:14;;;;;;;12.73;8.00;;;;;;;-1.52;100.00;102619.31;4833631;29;20877;-79
2023/03/03 06:17:42;;;;;;;10.18;7.93;;;;;;;-1.52;100.00;102624.50;4882838;29;20064;-79
2023/03/03 06:20:10;;;;;;;11.10;8.40;;;;;;;-1.52;100.00;102627.06;4891299;29;20417;-80
2023/03/03 06:22:38;;;;;;;8.15;6.70;;;;;;;-1.52;100.00;102620.22;4876513;29;20048;-81
2023/03/03 06:25:06;;;;;;;9.77;6.57;;;;;;;-1.53;100.00;102628.75;4873900;29;20064;-78
2023/03/03 06:27:34;;;;;;;8.48;7.10;;;;;;;-1.52;100.00;102627.06;4871476;29;20080;-77
2023/03/03 06:30:02;;;;;;;9.45;7.38;;;;;;;-1.51;100.00;102641.78;4849141;29;20056;-79
2023/03/03 06:32:29;;;;;;;7.95;6.82;;;;;;;-1.49;100.00;102635.06;4845979;29;20045;-80
2023/03/03 06:34:56;;;;;;;9.40;7.57;;;;;;;-1.48;100.00;102642.06;4877744;29;20048;-80
2023/03/03 06:37:24;;;;;;;11.63;7.32;;;;;;;-1.46;100.00;102633.63;4862221;29;20056;-80
2023/03/03 06:39:52;;;;;;;13.15;7.05;;;;;;;-1.41;100.00;102644.34;4846751;29;21002;-80
2023/03/03 06:42:19;;;;;;;9.80;7.50;;;;;;;-1.38;100.00;102645.50;4876671;29;20076;-81
2023/03/03 06:44:47;;;;;;;10.00;8.25;;;;;;;-1.33;100.00;102648.44;4851895;29;20053;-79
2023/03/03 06:47:14;;;;;;;10.75;7.15;;;;;;;-1.25;100.00;102652.56;4881959;29;20056;-79
2023/03/03 06:49:42;;;;;;;7.40;6.55;;;;;;;-1.14;100.00;102655.09;4879887;29;20083;-79
2023/03/03 06:52:21;;;;;;;10.50;7.32;;;;;;;-1.04;100.00;102657.63;4876339;29;20298;-79
2023/03/03 06:54:49;;;;;;;10.55;7.20;;;;;;;-0.92;100.00;102662.88;4871010;29;20060;-79
2023/03/03 06:57:35;;;;;;;11.00;7.78;;;;;;;-0.82;100.00;102655.94;4891894;29;20060;-79
2023/03/03 07:00:21;;;;;;;9.27;7.35;;;;;;;-0.71;100.00;102667.16;4856767;29;20063;-78
2023/03/03 07:03:07;;;;;;;9.77;8.02;;;;;;;-0.65;100.00;102658.94;4885495;29;20069;-79
2023/03/03 07:05:35;;;;;;;9.10;7.38;;;;;;;-0.65;100.00;102657.25;4880106;29;20041;-79
2023/03/03 07:08:10;;;;;;;11.77;7.47;;;;;;;-0.62;100.00;102662.69;4867213;29;21074;-79
2023/03/03 07:10:38;;;;;;;11.45;7.95;;;;;;;-0.57;100.00;102655.25;4877215;29;20126;-79
2023/03/03 07:13:15;;;;;;;8.27;7.20;;;;;;;-0.53;100.00;102653.81;4895282;29;20041;-81
2023/03/03 07:15:43;;;;;;;9.82;7.43;;;;;;;-0.51;100.00;102657.41;4855185;29;20068;-79
2023/03/03 07:18:38;;;;;;;8.45;6.95;;;;;;;-0.45;100.00;102668.28;4882603;29;20044;-77
2023/03/03 07:21:15;;;;;;;9.88;7.38;;;;;;;-0.41;100.00;102667.72;4884468;29;20412;-79
2023/03/03 07:23:44;;;;;;;8.75;7.00;;;;;;;-0.37;100.00;102655.91;4880626;29;20793;-80
2023/03/03 07:26:13;;;;;;;10.77;7.18;;;;;;;-0.34;100.00;102656.13;4894959;29;20156;-79
2023/03/03 07:28:44;;;;;;;10.10;5.97;;;;;;;-0.31;100.00;102664.16;4896463;29;20044;-80
2023/03/03 07:31:48;;;;;;;15.70;7.60;;;;;;;-0.28;100.00;102664.38;4891827;29;20423;-79
2023/03/03 07:34:21;;;;;;;13.15;7.30;;;;;;;-0.28;100.00;102659.22;4889308;29;20048;-78
2023/03/03 07:36:52;;;;;;;13.13;7.32;;;;;;;-0.25;100.00;102659.41;4882747;29;20407;-78
2023/03/03 07:39:32;;;;;;;10.15;6.95;;;;;;;-0.21;100.00;102664.97;4886407;29;20059;-78
2023/03/03 07:42:16;;;;;;;9.60;7.05;;;;;;;-0.17;100.00;102668.69;4889345;29;20052;-78
2023/03/03 07:44:51;;;;;;;9.68;7.30;;;;;;;-0.16;100.00;102665.31;4895163;29;20681;-78
2023/03/03 07:47:19;;;;;;;8.07;6.85;;;;;;;-0.17;100.00;102666.09;4848297;29;20064;-77
2023/03/03 07:49:48;;;;;;;8.18;6.97;;;;;;;-0.14;100.00;102660.25;4888250;29;20082;-77
2023/03/03 07:52:45;;;;;;;8.10;6.72;;;;;;;-0.09;100.00;102669.28;4877828;29;20044;-77
2023/03/03 07:55:28;;;;;;;10.00;7.32;;;;;;;-0.01;100.00;102673.34;4879711;29;20052;-77
2023/03/03 07:58:15;;;;;;;10.73;7.45;;;;;;;0.07;100.00;102666.13;4890100;29;20563;-77
2023/03/03 08:01:20;;;;;;;11.73;7.32;;;;;;;0.16;100.00;102677.19;4885086;29;20543;-76
2023/03/03 08:03:50;;;;;;;11.90;7.72;;;;;;;0.23;100.00;102674.28;4852729;29;20039;-76
2023/03/03 08:06:48;;;;;;;11.55;7.47;;;;;;;0.34;100.00;102672.47;4889298;29;20067;-76
2023/03/03 08:09:18;;;;;;;12.48;7.43;;;;;;;0.43;100.00;102682.63;4867362;29;20436;-76
2023/03/03 08:11:45;;;;;;;15.43;8.10;;;;;;;0.51;100.00;102668.50;4884832;29;20044;-76
2023/03/03 08:14:19;;;;;;;10.50;7.40;;;;;;;0.61;100.00;102672.72;4889003;29;20507;-76
2023/03/03 08:16:47;;;;;;;10.38;7.45;;;;;;;0.72;100.00;102672.69;4887178;29;20048;-76
2023/03/03 08:19:16;;;;;;;11.82;8.50;;;;;;;0.83;100.00;102676.03;4844608;29;20059;-78
2023/03/03 08:21:44;;;;;;;18.10;7.93;;;;;;;0.92;100.00;102675.81;4879153;29;20064;-78
2023/03/03 08:24:11;;;;;;;11.35;7.95;;;;;;;1.00;100.00;102674.66;4866844;29;20048;-78
2023/03/03 08:26:39;;;;;;;9.00;7.13;;;;;;;1.08;100.00;102677.81;4890769;29;20055;-77
2023/03/03 08:29:06;;;;;;;10.45;7.43;;;;;;;1.14;100.00;102679.16;4887394;29;20056;-78
2023/03/03 08:43:21;;;;;;;11.02;8.10;;;;;;;1.35;100.00;102673.66;5114444;27;20166;-79
2023/03/03 08:45:51;;;;;;;14.18;7.90;;;;;;;1.39;100.00;102674.78;5081641;27;20031;-78
2023/03/03 08:48:19;;;;;;;8.43;6.00;;;;;;;1.44;100.00;102678.59;5124489;27;20156;-77
2023/03/03 08:50:47;;;;;;;13.65;8.38;;;;;;;1.49;100.00;102677.22;5097644;27;20061;-78
2023/03/03 08:53:16;;;;;;;21.95;8.68;;;;;;;1.53;100.00;102680.16;5149808;27;20410;-78
2023/03/03 08:55:46;;;;;;;11.30;7.78;;;;;;;1.59;100.00;102677.06;5093119;27;20074;-78
2023/03/03 08:58:15;;;;;;;10.10;6.90;;;;;;;1.63;100.00;102673.00;5056945;27;20050;-78
2023/03/03 09:00:42;;;;;;;9.10;7.18;;;;;;;1.68;100.00;102680.31;5128312;27;20059;-78
2023/03/03 09:03:11;;;;;;;12.50;7.60;;;;;;;1.75;100.00;102674.69;5078819;27;20059;-79
2023/03/03 09:05:40;;;;;;;15.23;7.15;;;;;;;1.83;100.00;102671.72;5109879;27;20051;-79
2023/03/03 09:08:09;;;;;;;15.20;7.53;;;;;;;1.91;100.00;102668.88;5125144;27;20069;-80
2023/03/03 09:10:37;;;;;;;9.75;7.50;;;;;;;2.02;100.00;102669.56;5111204;27;20054;-79
2023/03/03 09:13:14;;;;;;;11.40;7.80;;;;;;;2.11;100.00;102672.78;5105127;27;20034;-79
2023/03/03 09:15:43;;;;;;;14.57;7.72;;;;;;;2.21;100.00;102668.19;5128175;27;20039;-79
2023/03/03 09:18:15;;;;;;;12.27;7.82;;;;;;;2.32;100.00;102667.22;5127006;27;20051;-79
2023/03/03 09:20:51;;;;;;;11.20;6.78;;;;;;;2.45;100.00;102676.72;5122493;27;20053;-79
2023/03/03 09:23:31;;;;;;;11.55;6.95;;;;;;;2.56;100.00;102674.84;5125319;27;20047;-79
2023/03/03 09:26:29;;;;;;;12.40;7.18;;;;;;;2.68;100.00;102673.91;5127007;27;20043;-79
2023/03/03 09:29:20;;;;;;;11.32;6.70;;;;;;;2.78;100.00;102665.00;5072637;27;20050;-79
2023/03/03 09:31:51;;;;;;;10.70;6.88;;;;;;;2.91;100.00;102669.28;5112857;27;20039;-78
2023/03/03 09:34:23;;;;;;;;;;;;;;;3.00;100.00;102667.25;5116039;27;20055;-78
2023/03/03 09:36:52;;;;;;;8.57;6.05;;;;;;;3.09;100.00;102662.63;5118322;27;19923;-80
2023/03/03 09:39:24;;;;;;;10.55;5.78;;;;;;;3.20;100.00;102660.69;5089777;28;20050;-78
2023/03/03 09:42:28;;;;;;;10.07;6.57;;;;;;;3.31;100.00;102666.59;5107539;28;20515;-78
2023/03/03 09:45:33;;;;;;;10.70;6.07;;;;;;;3.42;100.00;102662.94;5044856;28;20047;-79
2023/03/03 09:48:06;;;;;;;11.77;6.20;;;;;;;3.55;100.00;102661.06;5090935;28;20036;-80
2023/03/03 09:51:07;;;;;;;8.27;5.65;;;;;;;3.70;100.00;102659.38;5102300;28;20416;-80
2023/03/03 09:54:04;;;;;;;7.97;6.20;;;;;;;3.86;100.00;102661.22;5089162;28;20048;-79
2023/03/03 09:56:42;;;;;;;11.68;5.97;;;;;;;4.06;100.00;102670.19;5077959;28;20048;-79
2023/03/03 09:59:24;;;;;;;6.57;5.57;;;;;;;4.23;100.00;102663.38;5079559;28;20064;-79
2023/03/03 10:02:00;;;;;;;6.38;4.63;;;;;;;4.36;100.00;102660.66;5054335;28;20484;-80
2023/03/03 10:04:57;;;;;;;10.43;5.45;;;;;;;4.57;100.00;102666.19;5092157;28;20059;-82
2023/03/03 10:07:42;;;;;;;6.30;4.57;;;;;;;4.77;100.00;102674.28;5078012;28;20978;-82
2023/03/03 10:10:26;;;;;;;10.45;5.10;;;;;;;4.94;100.00;102664.78;5083843;28;20044;-80
2023/03/03 10:13:29;;;;;;;11.10;4.50;;;;;;;5.07;100.00;102669.84;5084568;28;20188;-80
2023/03/03 10:15:56;;;;;;;4.78;3.10;;;;;;;5.19;100.00;102661.78;5064312;28;20397;-81
2023/03/03 10:18:35;;;;;;;7.72;3.05;;;;;;;5.30;100.00;102664.97;5079408;28;20052;-81
2023/03/03 10:21:10;;;;;;;20.48;3.65;;;;;;;5.39;100.00;102661.13;5086701;28;20051;-81
2023/03/03 10:23:41;;;;;;;3.72;2.20;;;;;;;5.51;100.00;102653.03;5074096;28;20043;-81
2023/03/03 10:26:33;;;;;;;3.55;2.88;;;;;;;5.63;100.00;102658.00;5085566;28;20519;-81
2023/03/03 10:29:23;;;;;;;2.28;1.48;;;;;;;5.75;100.00;102658.66;5080538;28;20056;-81
2023/03/03 10:32:08;;;;;;;4.18;1.00;;;;;;;5.84;100.00;102659.13;5052061;28;20040;-80
2023/03/03 10:34:57;;;;;;;0.88;0.88;;;;;;;5.86;100.00;102661.84;5079011;28;20066;-81
2023/03/03 10:37:53;;;;;;;2.58;0.90;;;;;;;5.86;100.00;102662.72;5087076;28;20048;-80
2023/03/03 10:40:52;;;;;;;1.40;1.02;;;;;;;5.94;100.00;102668.34;5096061;28;20408;-80
2023/03/03 10:43:59;;;;;;;4.35;1.10;;;;;;;5.98;100.00;102669.44;5062854;28;20064;-81
2023/03/03 10:46:36;;;;;;;5.38;1.15;;;;;;;6.02;100.00;102671.41;5051321;28;20924;-81
2023/03/03 10:49:21;;;;;;;1.52;0.88;;;;;;;6.06;100.00;102673.34;5043559;28;20054;-80
2023/03/03 10:52:17;;;;;;;3.83;1.00;;;;;;;6.11;100.00;102668.34;5068796;28;20055;-81
2023/03/03 10:55:07;;;;;;;1.42;1.17;;;;;;;6.14;100.00;102674.63;5076601;28;20043;-80
2023/03/03 10:57:48;;;;;;;4.30;1.20;;;;;;;6.16;100.00;102675.63;5089735;28;20062;-81
2023/03/03 11:00:25;;;;;;;3.38;1.00;;;;;;;6.15;100.00;102670.31;5090104;28;20055;-81
2023/03/03 11:03:23;;;;;;;3.33;1.77;;;;;;;6.15;100.00;102667.69;5035238;28;20036;-81
2023/03/03 11:05:52;;;;;;;2.63;1.20;;;;;;;6.18;100.00;102666.13;5081804;28;20063;-80
2023/03/03 11:08:44;;;;;;;4.32;1.13;;;;;;;6.18;100.00;102665.19;5086548;28;20060;-80
2023/03/03 11:11:12;;;;;;;4.07;1.20;;;;;;;6.18;100.00;102668.75;5095477;28;20453;-81
2023/03/03 11:13:45;;;;;;;5.63;1.35;;;;;;;6.17;100.00;102674.78;5094255;28;20028;-81
2023/03/03 11:16:46;;;;;;;5.30;1.00;;;;;;;6.18;100.00;102670.44;5091957;28;20051;-81
2023/03/03 11:19:34;;;;;;;2.25;1.08;;;;;;;6.18;100.00;102681.84;5021491;28;20057;-81
2023/03/03 11:22:32;;;;;;;4.22;1.75;;;;;;;6.18;100.00;102673.06;5084073;28;20058;-80
2023/03/03 11:25:07;;;;;;;3.80;1.33;;;;;;;6.23;100.00;102667.22;5085562;28;20059;-80
2023/03/03 11:28:12;;;;;;;4.03;1.15;;;;;;;6.25;100.00;102678.69;5071588;28;20056;-81
2023/03/03 11:31:14;;;;;;;2.97;1.00;;;;;;;6.25;100.00;102672.56;5090165;28;20048;-81
2023/03/03 11:33:57;;;;;;;4.63;1.15;;;;;;;6.27;100.00;102665.66;5031216;28;20151;-81
2023/03/03 11:36:38;;;;;;;5.50;1.17;;;;;;;6.36;100.00;102670.47;5082113;28;20052;-81
2023/03/03 11:39:11;;;;;;;3.80;1.25;;;;;;;6.40;100.00;102659.31;5091983;28;20051;-81
2023/03/03 11:42:15;;;;;;;;;;;;;;;6.43;100.00;102656.88;5086584;28;20040;-82
2023/03/03 11:44:48;;;;;;;3.45;1.27;;;;;;;6.51;100.00;102666.00;5043909;28;19909;-81
2023/03/03 11:47:32;;;;;;;2.22;0.85;;;;;;;6.57;100.00;102670.63;5081611;28;20052;-82
2023/03/03 11:50:07;;;;;;;3.13;0.98;;;;;;;6.61;100.00;102662.97;5056949;28;20043;-81
2023/03/03 11:52:43;;;;;;;3.67;1.40;;;;;;;6.61;100.00;102662.09;5096690;28;20047;-81
2023/03/03 11:55:32;;;;;;;6.18;1.13;;;;;;;6.72;100.00;102663.50;5076362;28;20047;-81
2023/03/03 11:58:19;;;;;;;2.13;1.08;;;;;;;6.78;100.00;102653.31;5079979;28;20058;-82